Time;durP1;ratioP1;P1;durP2;ratioP2;P2;SDS_P1;SDS_P2;PMS_P1;PMS_P2;Temp;Humidity;BMP_temperature;BMP_pressure;BME280_temperature;BME280_humidity;BME280_pressure;Samples;Min_cycle;Max_cycle;Signal;HPM_P1;HPM_P2
2022/04/23 00:02:05;;;;;;;1.20;0.73;;;;;;;10.55;68.50;100611.50;10579942;27;20051;-77
2022/04/23 00:07:07;;;;;;;0.20;0.20;;;;;;;10.45;68.82;100613.91;10574227;27;20491;-77
2022/04/23 00:12:08;;;;;;;0.88;0.82;;;;;;;10.56;68.85;100605.53;10578316;27;20440;-78
2022/04/23 00:17:10;;;;;;;0.30;0.30;;;;;;;10.60;68.69;100612.50;10580741;28;20112;-79
2022/04/23 00:22:16;;;;;;;0.43;0.35;;;;;;;10.34;69.42;100615.31;10579545;28;20031;-78
2022/04/23 00:27:18;;;;;;;1.70;0.88;;;;;;;10.58;69.07;100607.28;10579669;28;20050;-79
2022/04/23 00:32:19;;;;;;;9.38;1.40;;;;;;;10.59;69.22;100608.19;10578478;28;20035;-78
2022/04/23 00:37:24;;;;;;;0.00;0.00;;;;;;;10.70;69.20;100605.81;10579681;28;20048;-78
2022/04/23 00:42:25;;;;;;;3.63;2.03;;;;;;;10.54;69.46;100599.47;10559739;28;20071;-78
2022/04/23 00:47:27;;;;;;;0.00;0.00;;;;;;;10.81;68.90;100600.88;10580321;28;20043;-79
2022/04/23 00:52:28;;;;;;;0.40;0.40;;;;;;;10.80;69.11;100605.16;10578144;28;20105;-78
2022/04/23 00:57:34;;;;;;;2.10;1.67;;;;;;;10.59;69.68;100600.44;10573310;28;20058;-78
2022/04/23 01:02:36;;;;;;;0.00;0.00;;;;;;;10.60;69.86;100597.03;10577842;28;20177;-77
2022/04/23 01:07:43;;;;;;;0.00;0.00;;;;;;;10.65;69.81;100592.84;10560419;28;20065;-78
2022/04/23 01:12:46;;;;;;;2.05;1.95;;;;;;;10.71;69.52;100584.38;10577829;28;20040;-78
2022/04/23 01:17:49;;;;;;;0.10;0.10;;;;;;;10.84;69.21;100578.63;10559895;28;20073;-78
2022/04/23 01:22:51;;;;;;;0.60;0.60;;;;;;;10.93;68.99;100581.38;10573567;28;20085;-79
2022/04/23 01:27:53;;;;;;;2.72;2.40;;;;;;;10.91;69.82;100587.31;10578072;28;20115;-79
2022/04/23 01:32:55;;;;;;;9.80;5.45;;;;;;;11.15;68.60;100583.47;10576453;28;20475;-80
2022/04/23 01:37:56;;;;;;;0.00;0.00;;;;;;;11.30;68.49;100581.19;10576920;28;20120;-79
2022/04/23 01:42:58;;;;;;;0.00;0.00;;;;;;;11.35;67.98;100582.16;10575695;28;20043;-78
2022/04/23 01:48:00;;;;;;;0.00;0.00;;;;;;;11.42;67.87;100581.41;10535813;28;20050;-77
2022/04/23 01:53:02;;;;;;;0.30;0.20;;;;;;;11.37;67.80;100583.03;10572960;28;20502;-79
2022/04/23 01:58:04;;;;;;;7.25;3.97;;;;;;;11.13;68.58;100587.75;10579838;28;20042;-78
2022/04/23 02:03:07;;;;;;;0.40;0.30;;;;;;;11.26;68.54;100587.13;10559418;28;20464;-79
2022/04/23 02:08:09;;;;;;;0.55;0.55;;;;;;;11.35;68.51;100589.88;10559560;28;20055;-78
2022/04/23 02:13:11;;;;;;;1.38;1.00;;;;;;;11.31;68.00;100577.75;10541222;28;20055;-79
2022/04/23 02:18:14;;;;;;;0.10;0.10;;;;;;;11.13;68.51;100583.47;10576469;28;20073;-78
2022/04/23 02:23:15;;;;;;;0.05;0.05;;;;;;;11.13;68.37;100583.47;10576057;28;20372;-77
2022/04/23 02:28:17;;;;;;;1.40;1.15;;;;;;;10.96;68.50;100585.72;10559574;28;20108;-78
2022/04/23 02:33:19;;;;;;;1.13;1.02;;;;;;;10.89;68.82;100587.31;10559491;28;20090;-77
2022/04/23 02:38:21;;;;;;;0.35;0.35;;;;;;;10.73;69.41;100586.13;10579895;28;20131;-76
2022/04/23 02:43:22;;;;;;;0.30;0.20;;;;;;;10.52;70.21;100598.56;10581528;28;20100;-78
2022/04/23 02:48:24;;;;;;;1.08;0.93;;;;;;;10.62;70.01;100608.22;10579540;28;20044;-77
2022/04/23 02:53:28;;;;;;;0.40;0.40;;;;;;;10.60;69.75;100597.91;10577692;28;20487;-77
2022/04/23 02:58:30;;;;;;;6.25;2.08;;;;;;;10.59;69.89;100601.31;10579239;28;20044;-78
2022/04/23 03:03:33;;;;;;;1.40;1.20;;;;;;;10.43;70.10;100592.41;10578287;28;20079;-79
2022/04/23 03:08:38;;;;;;;0.52;0.52;;;;;;;10.47;69.83;100589.03;10583631;28;20050;-78
2022/04/23 03:13:39;;;;;;;0.08;0.08;;;;;;;10.26;70.35;100589.44;10582678;28;20042;-78
2022/04/23 03:18:44;;;;;;;1.98;1.73;;;;;;;10.14;71.42;100595.16;10583387;28;20671;-79
2022/04/23 03:23:45;;;;;;;1.58;1.05;;;;;;;10.18;71.21;100597.78;10581553;28;20039;-78
2022/04/23 03:28:47;;;;;;;0.10;0.10;;;;;;;10.12;70.82;100598.53;10563523;28;20463;-78
2022/04/23 03:33:49;;;;;;;0.22;0.22;;;;;;;9.97;71.95;100606.75;10578233;28;20460;-78
2022/04/23 03:38:50;;;;;;;0.43;0.15;;;;;;;9.86;71.47;100595.38;10581538;28;20414;-77
2022/04/23 03:43:52;;;;;;;0.00;0.00;;;;;;;9.95;71.67;100595.56;10580671;28;20447;-78
2022/04/23 03:48:54;;;;;;;3.35;3.05;;;;;;;9.52;72.70;100596.25;10581712;28;20383;-78
2022/04/23 03:53:56;;;;;;;0.00;0.00;;;;;;;9.64;72.32;100600.00;10580844;28;20126;-78
2022/04/23 03:58:58;;;;;;;0.00;0.00;;;;;;;9.49;73.18;100598.75;10581107;28;20499;-78
2022/04/23 04:04:00;;;;;;;1.25;0.52;;;;;;;9.40;73.58;100603.69;10578517;28;20047;-78
2022/04/23 04:09:02;;;;;;;1.35;0.40;;;;;;;9.31;73.70;100590.56;10579934;28;20056;-78
2022/04/23 04:14:04;;;;;;;0.00;0.00;;;;;;;9.35;73.33;100594.94;10578681;28;20419;-78
2022/04/23 04:19:05;;;;;;;0.00;0.00;;;;;;;9.44;72.84;100584.91;10570136;28;20112;-78
2022/04/23 04:24:07;;;;;;;0.30;0.30;;;;;;;9.40;73.03;100583.09;10594870;27;20551;-78
2022/04/23 04:29:09;;;;;;;3.38;1.92;;;;;;;9.21;74.15;100582.59;10579680;28;20096;-78
2022/04/23 04:34:10;;;;;;;0.52;0.40;;;;;;;9.19;74.28;100586.88;10578553;28;20384;-78
2022/04/23 04:39:12;;;;;;;2.53;1.20;;;;;;;9.29;74.20;100584.50;10576173;27;20283;-78
2022/04/23 04:44:14;;;;;;;6.85;3.40;;;;;;;9.24;74.06;100580.97;10549890;28;20575;-77
2022/04/23 04:49:16;;;;;;;0.38;0.38;;;;;;;9.28;74.34;100575.06;10578659;28;20517;-78
2022/04/23 04:54:18;;;;;;;1.15;0.80;;;;;;;9.17;74.76;100578.22;10577876;28;20075;-79
2022/04/23 04:59:23;;;;;;;1.08;1.02;;;;;;;9.28;74.98;100578.50;10578453;28;20059;-78
2022/04/23 05:04:49;;;;;;;1.08;0.80;;;;;;;9.48;74.51;100573.88;10574141;27;20040;-78
2022/04/23 05:09:51;;;;;;;0.00;0.00;;;;;;;9.63;74.27;100575.94;10561538;28;20071;-77
2022/04/23 05:14:52;;;;;;;2.63;0.90;;;;;;;9.61;73.78;100585.31;10577231;28;20084;-78
2022/04/23 05:19:54;;;;;;;15.45;8.93;;;;;;;9.55;74.51;100586.88;10573704;28;20522;-78
2022/04/23 05:24:57;;;;;;;0.95;0.38;;;;;;;9.82;74.34;100584.97;10577196;28;20495;-78
2022/04/23 05:29:58;;;;;;;0.40;0.40;;;;;;;9.91;73.37;100588.63;10556086;28;20514;-79
2022/04/23 05:35:00;;;;;;;2.88;0.85;;;;;;;9.94;73.89;100594.69;10562681;28;20044;-78
2022/04/23 05:40:35;;;;;;;5.50;3.15;;;;;;;9.92;73.39;100583.50;10559275;28;20056;-74
2022/04/23 05:45:37;;;;;;;13.63;4.72;;;;;;;9.94;73.34;100581.84;10577251;28;20047;-74
2022/04/23 05:50:39;;;;;;;4.03;2.47;;;;;;;10.16;72.70;100585.75;10576457;28;20036;-74
2022/04/23 05:55:40;;;;;;;0.93;0.82;;;;;;;10.45;72.36;100588.16;10566444;28;20051;-75
2022/04/23 06:00:42;;;;;;;4.07;2.75;;;;;;;10.46;71.81;100583.84;10558585;28;20052;-74
2022/04/23 06:05:44;;;;;;;4.20;2.17;;;;;;;10.73;71.31;100583.56;10576532;28;20055;-74
2022/04/23 06:10:45;;;;;;;0.30;0.25;;;;;;;11.00;70.71;100587.50;10558540;28;20090;-73
2022/04/23 06:15:47;;;;;;;4.05;2.28;;;;;;;10.77;70.78;100572.47;10576852;28;20043;-73
2022/04/23 06:20:49;;;;;;;1.00;0.82;;;;;;;10.74;70.95;100574.13;10577045;28;20445;-73
2022/04/23 06:25:53;;;;;;;1.15;0.80;;;;;;;10.85;70.49;100576.91;10575763;28;20058;-73
2022/04/23 06:30:54;;;;;;;3.33;2.63;;;;;;;10.96;69.77;100580.56;10583190;28;20068;-74
2022/04/23 06:35:56;;;;;;;3.63;1.35;;;;;;;11.37;68.96;100580.44;10580151;27;20146;-74
2022/04/23 06:40:57;;;;;;;0.00;0.00;;;;;;;11.64;68.82;100579.19;10609302;27;20575;-73
2022/04/23 06:46:00;;;;;;;2.35;1.60;;;;;;;11.60;68.57;100577.38;10607301;27;20507;-73
2022/04/23 06:51:02;;;;;;;0.47;0.47;;;;;;;11.63;68.03;100585.19;10586763;27;20193;-73
2022/04/23 06:56:04;;;;;;;1.33;0.82;;;;;;;12.08;66.45;100585.91;10590211;27;20561;-73
2022/04/23 07:01:06;;;;;;;2.25;2.05;;;;;;;12.89;65.17;100577.47;10548161;28;20040;-73
2022/04/23 07:06:08;;;;;;;1.30;0.77;;;;;;;12.91;64.23;100569.72;10600363;27;20204;-74
2022/04/23 07:11:10;;;;;;;0.45;0.45;;;;;;;13.00;63.24;100581.00;10600643;27;20031;-75
2022/04/23 07:16:13;;;;;;;4.53;4.13;;;;;;;13.59;62.53;100579.00;10593874;27;20035;-75
2022/04/23 07:21:15;;;;;;;3.72;0.90;;;;;;;14.05;62.35;100565.56;10585098;27;20039;-74
2022/04/23 07:26:20;;;;;;;3.13;2.17;;;;;;;13.99;60.60;100567.22;10593013;27;20514;-74
2022/04/23 07:31:21;;;;;;;8.35;4.68;;;;;;;13.56;60.75;100568.66;10589004;27;20066;-73
2022/04/23 07:41:43;;;;;;;0.45;0.43;;;;;;;15.15;58.39;100550.41;10594145;27;20111;-74
2022/04/23 07:46:45;;;;;;;3.40;2.28;;;;;;;14.70;57.53;100552.06;10602363;27;20403;-73
2022/04/23 07:51:47;;;;;;;2.08;1.35;;;;;;;15.77;56.15;100550.44;10610922;27;20046;-74
2022/04/23 07:56:48;;;;;;;2.35;1.80;;;;;;;15.23;55.08;100553.88;10586157;27;20097;-74
2022/04/23 08:01:51;;;;;;;0.13;0.13;;;;;;;15.75;54.95;100559.94;10562376;28;20554;-75
2022/04/23 08:06:52;;;;;;;2.17;1.70;;;;;;;16.36;52.52;100554.66;10581383;28;20058;-74
2022/04/23 08:11:54;;;;;;;2.72;1.65;;;;;;;15.06;55.88;100560.81;10580112;27;20075;-75
2022/04/23 08:16:56;;;;;;;1.00;0.98;;;;;;;16.02;54.10;100551.28;10580651;28;20104;-74
2022/04/23 08:21:58;;;;;;;4.43;2.88;;;;;;;16.00;52.18;100550.44;10581500;27;20043;-74
2022/04/23 08:26:59;;;;;;;1.98;1.27;;;;;;;15.63;53.74;100552.16;10576220;27;20705;-73
2022/04/23 08:32:01;;;;;;;0.43;0.38;;;;;;;14.80;55.14;100548.63;10557338;27;20059;-74
2022/04/23 08:37:03;;;;;;;3.45;1.98;;;;;;;16.09;53.09;100539.16;10574057;27;20422;-74
2022/04/23 08:42:06;;;;;;;5.85;3.35;;;;;;;16.23;51.96;100533.91;10578861;28;20040;-73
2022/04/23 08:47:12;;;;;;;0.00;0.00;;;;;;;16.87;50.84;100531.88;10560942;28;20425;-75
2022/04/23 08:52:28;;;;;;;2.50;1.70;;;;;;;17.37;50.79;100537.63;10560391;28;20113;-75
2022/04/23 08:57:30;;;;;;;1.13;1.05;;;;;;;17.31;50.25;100532.47;10561139;28;20039;-73
2022/04/23 09:02:32;;;;;;;1.33;0.82;;;;;;;17.05;49.96;100530.91;10575728;28;20043;-74
2022/04/23 09:07:34;;;;;;;0.85;0.60;;;;;;;17.62;48.65;100524.38;10578237;28;20079;-73
2022/04/23 09:12:53;;;;;;;0.28;0.28;;;;;;;18.53;47.54;100512.09;10577667;28;20067;-74
2022/04/23 09:28:44;;;;;;;;;;;;;;;17.89;48.21;100510.22;10621211;27;20047;-75
2022/04/23 09:33:54;;;;;;;11.13;3.10;;;;;;;18.00;46.85;100506.66;10577840;27;19927;-76
2022/04/23 09:39:03;;;;;;;0.30;0.30;;;;;;;18.35;47.44;100501.03;10577930;28;20044;-75
2022/04/23 09:44:09;;;;;;;6.97;3.67;;;;;;;17.68;48.52;100494.81;10592710;27;20043;-75
2022/04/23 09:49:12;;;;;;;3.45;2.35;;;;;;;17.56;47.56;100511.41;10552038;28;20054;-76
2022/04/23 09:54:14;;;;;;;4.60;2.22;;;;;;;18.54;45.02;100492.97;10557838;28;20096;-75
2022/04/23 09:59:16;;;;;;;5.53;2.58;;;;;;;18.54;44.99;100491.19;10576523;28;20487;-75
2022/04/23 10:04:22;;;;;;;6.07;3.42;;;;;;;18.29;46.02;100498.47;10576270;28;20510;-75
2022/04/23 10:09:30;;;;;;;2.95;1.42;;;;;;;18.88;47.25;100497.69;10558272;28;20070;-74
2022/04/23 10:14:38;;;;;;;6.53;2.95;;;;;;;18.92;43.68;100502.00;10574816;28;20043;-75
2022/04/23 10:19:43;;;;;;;7.22;2.03;;;;;;;18.71;45.49;100506.63;10570941;28;20054;-75
2022/04/23 10:25:00;;;;;;;6.18;3.67;;;;;;;17.89;45.76;100515.44;10557253;28;20088;-75
2022/04/23 10:30:04;;;;;;;7.68;3.63;;;;;;;18.55;43.54;100499.91;10569697;28;20089;-74
2022/04/23 10:35:18;;;;;;;4.53;2.42;;;;;;;19.20;44.95;100495.50;10564226;28;20066;-75
2022/04/23 10:40:21;;;;;;;5.25;2.50;;;;;;;19.34;43.74;100496.13;10557353;28;20036;-75
2022/04/23 10:45:31;;;;;;;9.48;5.57;;;;;;;19.34;42.99;100493.53;10575362;28;20100;-74
2022/04/23 10:50:34;;;;;;;7.78;3.55;;;;;;;19.18;42.53;100485.06;10575306;28;20054;-74
2022/04/23 10:56:09;;;;;;;6.68;3.78;;;;;;;19.60;43.04;100498.28;10575302;28;20047;-74
2022/04/23 11:01:31;;;;;;;5.00;2.75;;;;;;;20.18;40.71;100492.84;10601698;28;20100;-75
2022/04/23 11:12:26;;;;;;;4.45;3.00;;;;;;;19.84;40.46;100490.91;10617529;28;20421;-76
2022/04/23 11:17:32;;;;;;;2.73;1.83;;;;;;;19.54;40.86;100477.50;10572581;28;20086;-75
2022/04/23 11:22:33;;;;;;;5.90;3.88;;;;;;;19.26;40.94;100477.97;10575332;28;20387;-75
2022/04/23 11:27:38;;;;;;;5.82;2.30;;;;;;;20.38;43.25;100470.63;10582645;28;20542;-75
2022/04/23 11:32:39;;;;;;;1.88;1.23;;;;;;;20.98;39.97;100460.56;10563785;28;20089;-75
2022/04/23 11:37:42;;;;;;;5.10;2.20;;;;;;;20.52;40.75;100452.88;10580958;28;20044;-77
2022/04/23 11:42:46;;;;;;;0.35;0.35;;;;;;;20.35;40.25;100455.00;10562357;28;20113;-76
2022/04/23 11:47:47;;;;;;;6.25;3.58;;;;;;;20.27;38.40;100453.44;10579268;28;20042;-76
2022/04/23 11:53:03;;;;;;;3.10;1.77;;;;;;;20.07;38.80;100452.97;10537174;28;20056;-77
2022/04/23 11:58:05;;;;;;;2.03;1.48;;;;;;;20.52;40.40;100452.88;10580284;28;20056;-75
2022/04/23 12:03:10;;;;;;;3.10;1.50;;;;;;;20.34;38.88;100450.69;10579688;28;20043;-76
2022/04/23 12:08:21;;;;;;;3.13;0.63;;;;;;;19.32;41.27;100456.97;10561299;28;20054;-75
2022/04/23 12:13:22;;;;;;;1.70;1.10;;;;;;;19.22;40.89;100460.63;10578303;28;20039;-74
2022/04/23 12:18:24;;;;;;;1.98;1.55;;;;;;;20.84;39.62;100445.22;10585301;27;20047;-74
2022/04/23 12:23:38;;;;;;;4.50;2.15;;;;;;;20.58;37.64;100442.28;10594746;27;20085;-75
2022/04/23 12:44:55;;;;;;;1.70;1.10;;;;;;;21.28;39.76;100422.28;10578866;28;20354;-74
2022/04/23 12:50:00;;;;;;;1.63;1.50;;;;;;;20.00;38.32;100420.00;10582394;28;20051;-75
2022/04/23 12:55:30;;;;;;;4.00;2.22;;;;;;;18.94;39.07;100421.06;10598389;27;20047;-75
2022/04/23 13:00:38;;;;;;;1.17;1.13;;;;;;;19.75;41.16;100408.25;10583446;27;20039;-74
2022/04/23 13:05:43;;;;;;;6.18;2.78;;;;;;;19.16;39.46;100411.97;10600279;27;20035;-75
2022/04/23 13:10:46;;;;;;;1.30;0.75;;;;;;;19.49;38.72;100414.00;10581710;27;20100;-75
2022/04/23 13:15:48;;;;;;;7.88;3.25;;;;;;;19.69;39.25;100408.41;10593801;27;20138;-74
2022/04/23 13:20:50;;;;;;;4.32;1.30;;;;;;;19.73;38.61;100403.97;10572291;27;20047;-75
2022/04/23 13:25:51;;;;;;;2.05;1.27;;;;;;;19.75;37.54;100402.19;10572536;27;20417;-74
2022/04/23 13:30:53;;;;;;;3.63;2.50;;;;;;;19.22;36.75;100403.19;10595562;27;20055;-76
2022/04/23 13:35:55;;;;;;;1.27;1.02;;;;;;;19.38;36.99;100400.28;10603298;27;20082;-73
2022/04/23 13:40:57;;;;;;;6.05;2.42;;;;;;;19.97;38.35;100393.03;10602077;27;20042;-74
2022/04/23 13:45:59;;;;;;;4.13;2.55;;;;;;;18.77;42.24;100395.22;10598125;27;20100;-75
2022/04/23 13:51:01;;;;;;;0.90;0.82;;;;;;;18.01;41.78;100394.56;10606481;27;20451;-76
2022/04/23 13:56:03;;;;;;;2.63;2.00;;;;;;;18.92;41.92;100399.34;10591236;27;20496;-77
2022/04/23 14:01:05;;;;;;;3.60;2.35;;;;;;;17.93;41.24;100393.75;10598362;27;20043;-74
2022/04/23 14:11:27;;;;;;;1.65;1.10;;;;;;;18.15;42.69;100383.97;10602237;27;20055;-75
2022/04/23 14:16:30;;;;;;;2.33;1.98;;;;;;;17.97;41.72;100387.69;10594338;27;20044;-75
2022/04/23 14:21:33;;;;;;;3.88;2.20;;;;;;;18.31;41.86;100376.78;10583902;27;20046;-75
2022/04/23 14:26:36;;;;;;;0.80;0.60;;;;;;;18.14;43.34;100363.09;10591098;28;20044;-75
2022/04/23 14:31:38;;;;;;;2.33;1.20;;;;;;;18.76;41.32;100355.22;10594690;27;20035;-75
2022/04/23 14:36:41;;;;;;;0.52;0.52;;;;;;;17.84;42.36;100363.50;10594525;28;20483;-75
2022/04/23 14:41:43;;;;;;;1.90;1.13;;;;;;;17.26;41.87;100341.59;10593207;28;20048;-74
2022/04/23 14:46:45;;;;;;;2.15;1.35;;;;;;;18.30;41.72;100343.75;10580410;28;20043;-74
2022/04/23 14:57:12;;;;;;;3.20;2.28;;;;;;;18.00;40.57;100345.06;10597944;27;20755;-76
2022/04/23 15:02:14;;;;;;;0.90;0.80;;;;;;;18.93;40.98;100343.66;10629343;27;20035;-75
2022/04/23 15:07:15;;;;;;;0.57;0.57;;;;;;;18.28;40.69;100352.50;10625019;27;20478;-76
2022/04/23 15:12:17;;;;;;;2.85;1.25;;;;;;;17.96;40.97;100344.25;10599140;27;20028;-75
2022/04/23 15:17:20;;;;;;;2.85;1.33;;;;;;;18.01;41.01;100339.84;10605339;27;20214;-74
2022/04/23 15:22:22;;;;;;;4.15;2.88;;;;;;;17.87;42.40;100341.72;10578392;27;20384;-76
2022/04/23 15:27:24;;;;;;;1.17;0.32;;;;;;;18.11;42.35;100342.31;10614457;27;20046;-75
2022/04/23 15:32:26;;;;;;;0.45;0.10;;;;;;;18.74;41.56;100337.84;10605316;27;20043;-75
2022/04/23 15:37:34;;;;;;;0.45;0.32;;;;;;;18.27;40.53;100333.38;10598701;27;20051;-76
2022/04/23 15:42:37;;;;;;;0.23;0.20;;;;;;;17.92;40.83;100334.72;10596900;27;20043;-74
2022/04/23 15:47:39;;;;;;;0.93;0.30;;;;;;;17.62;40.88;100339.44;10605754;27;20375;-75
2022/04/23 15:52:41;;;;;;;0.52;0.35;;;;;;;18.03;41.56;100335.47;10609085;27;20058;-75
2022/04/23 15:57:42;;;;;;;1.10;0.55;;;;;;;17.52;40.78;100333.47;10587419;27;20043;-73
2022/04/23 16:02:44;;;;;;;1.27;0.95;;;;;;;17.33;41.80;100322.41;10586153;27;20410;-75
2022/04/23 16:07:46;;;;;;;0.38;0.22;;;;;;;17.58;42.47;100328.19;10597830;27;20047;-74
2022/04/23 16:12:48;;;;;;;0.20;0.20;;;;;;;17.52;41.92;100327.41;10595573;27;20031;-74
2022/04/23 16:17:50;;;;;;;1.08;0.40;;;;;;;17.17;41.92;100328.66;10617200;27;20047;-74
2022/04/23 16:22:52;;;;;;;1.25;0.90;;;;;;;17.40;42.41;100318.00;10586957;27;20375;-76
2022/04/23 16:27:54;;;;;;;1.25;0.73;;;;;;;17.99;41.75;100317.28;10582386;28;20490;-75
2022/04/23 16:32:56;;;;;;;0.05;0.05;;;;;;;17.82;41.27;100314.88;10582796;28;20475;-75
2022/04/23 16:48:39;;;;;;;0.40;0.40;;;;;;;17.52;40.35;100323.06;10544795;28;20521;-73
2022/04/23 16:53:43;;;;;;;0.20;0.20;;;;;;;17.64;41.98;100322.06;10585037;27;20056;-72
2022/04/23 16:58:44;;;;;;;0.10;0.10;;;;;;;17.62;40.62;100313.38;10558007;28;20100;-75
2022/04/23 17:03:46;;;;;;;0.82;0.80;;;;;;;17.53;40.71;100319.59;10579667;27;20096;-74
2022/04/23 17:08:50;;;;;;;1.00;0.65;;;;;;;17.37;39.66;100313.72;10598629;27;20051;-73
2022/04/23 17:13:51;;;;;;;0.00;0.00;;;;;;;17.17;42.06;100315.66;10580388;28;20040;-74
2022/04/23 17:18:53;;;;;;;1.02;0.75;;;;;;;17.18;39.56;100314.78;10581013;28;20051;-75
2022/04/23 17:23:56;;;;;;;0.40;0.30;;;;;;;16.93;40.39;100317.66;10538929;28;20040;-74
2022/04/23 17:28:58;;;;;;;0.00;0.00;;;;;;;16.89;41.65;100310.69;10521771;28;20067;-73
2022/04/23 17:34:00;;;;;;;0.85;0.77;;;;;;;16.74;39.21;100312.56;10567063;28;20096;-74
2022/04/23 17:39:03;;;;;;;0.63;0.38;;;;;;;16.59;37.51;100316.19;10581631;28;20089;-74
2022/04/23 17:44:07;;;;;;;0.80;0.75;;;;;;;16.53;39.02;100315.34;10581961;28;20057;-74
2022/04/23 17:49:09;;;;;;;0.00;0.00;;;;;;;16.40;38.70;100320.66;10547124;28;20074;-74
2022/04/23 17:54:12;;;;;;;0.73;0.35;;;;;;;16.20;38.10;100326.00;10563437;28;20056;-74
2022/04/23 17:59:13;;;;;;;0.00;0.00;;;;;;;16.05;39.62;100326.09;10563462;28;20051;-72
2022/04/23 18:09:38;;;;;;;0.13;0.13;;;;;;;15.52;40.51;100326.31;10581796;28;20046;-75
2022/04/23 18:14:44;;;;;;;0.93;0.88;;;;;;;15.42;39.40;100324.59;10581606;28;20063;-75
2022/04/23 18:19:46;;;;;;;0.35;0.35;;;;;;;15.29;39.81;100323.81;10581160;28;20065;-74
2022/04/23 18:24:48;;;;;;;0.28;0.28;;;;;;;15.12;40.21;100329.88;10580332;28;20719;-74
2022/04/23 18:29:51;;;;;;;0.00;0.00;;;;;;;14.95;41.00;100334.22;10581565;28;20043;-74
2022/04/23 18:34:55;;;;;;;0.00;0.00;;;;;;;14.60;42.46;100334.22;10585368;27;20073;-75
2022/04/23 18:39:57;;;;;;;0.30;0.30;;;;;;;14.49;42.17;100335.09;10588033;28;20380;-73
2022/04/23 18:44:59;;;;;;;0.30;0.20;;;;;;;14.32;42.58;100333.34;10570963;28;20036;-74
2022/04/23 18:50:01;;;;;;;0.08;0.08;;;;;;;14.18;43.31;100335.94;10589574;28;20052;-74
2022/04/23 18:55:03;;;;;;;1.55;0.28;;;;;;;14.07;42.25;100340.19;10589836;28;20039;-74
2022/04/23 19:00:07;;;;;;;0.13;0.10;;;;;;;13.93;42.24;100334.97;10588696;27;20447;-75
2022/04/23 19:05:11;;;;;;;2.03;0.88;;;;;;;13.60;43.45;100341.78;10610246;27;20043;-74
2022/04/23 19:10:13;;;;;;;1.05;0.98;;;;;;;13.68;42.90;100341.78;10607984;27;20036;-74
2022/04/23 19:15:14;;;;;;;0.95;0.63;;;;;;;13.61;43.26;100354.72;10586445;27;20101;-74
2022/04/23 19:20:16;;;;;;;0.00;0.00;;;;;;;13.62;42.50;100350.41;10607509;27;20043;-73
2022/04/23 19:30:38;;;;;;;0.00;0.00;;;;;;;13.35;43.54;100356.28;10618817;27;20054;-73
2022/04/23 19:35:39;;;;;;;0.15;0.15;;;;;;;13.02;45.21;100369.00;10629902;27;20051;-74
2022/04/23 19:40:41;;;;;;;0.52;0.43;;;;;;;13.09;44.19;100369.91;10629914;27;20054;-74
2022/04/23 19:45:42;;;;;;;1.73;0.32;;;;;;;12.98;43.97;100368.13;10630302;27;20047;-74
2022/04/23 19:50:44;;;;;;;0.05;0.05;;;;;;;13.06;44.13;100365.56;10617502;27;20048;-73
2022/04/23 19:55:47;;;;;;;0.00;0.00;;;;;;;13.00;44.23;100363.81;10585109;28;20100;-74
2022/04/23 20:00:49;;;;;;;0.00;0.00;;;;;;;12.90;44.66;100364.59;10582715;28;20104;-74
2022/04/23 20:05:50;;;;;;;0.10;0.10;;;;;;;12.79;45.41;100371.41;10582982;28;20036;-74
2022/04/23 20:10:52;;;;;;;1.55;0.85;;;;;;;12.91;44.68;100361.16;10581924;28;20067;-73
2022/04/23 20:15:53;;;;;;;2.40;0.70;;;;;;;12.77;45.03;100367.97;10546746;28;20048;-75
2022/04/23 20:20:56;;;;;;;0.22;0.10;;;;;;;12.76;45.05;100361.06;10563584;28;20106;-74
2022/04/23 20:25:58;;;;;;;0.30;0.17;;;;;;;12.63;45.55;100366.09;10566946;28;20038;-73
2022/04/23 20:30:59;;;;;;;0.03;0.03;;;;;;;12.46;46.32;100375.44;10566821;28;20050;-72
2022/04/23 20:41:21;;;;;;;0.00;0.00;;;;;;;12.33;46.46;100372.69;10583187;28;20044;-76
2022/04/23 20:46:23;;;;;;;0.85;0.85;;;;;;;12.20;46.98;100371.72;10565489;28;20623;-76
2022/04/23 20:51:26;;;;;;;0.80;0.80;;;;;;;12.20;46.53;100364.00;10592399;27;20039;-76
2022/04/23 20:56:28;;;;;;;0.15;0.15;;;;;;;12.00;47.17;100368.94;10564852;28;20073;-78
2022/04/23 21:01:30;;;;;;;0.00;0.00;;;;;;;11.90;47.96;100372.19;10582489;28;20051;-77
2022/04/23 21:06:33;;;;;;;0.08;0.08;;;;;;;11.88;47.85;100368.72;10583422;28;20039;-77
2022/04/23 21:11:36;;;;;;;0.25;0.25;;;;;;;11.65;48.59;100366.75;10582454;28;20047;-77
2022/04/23 21:16:37;;;;;;;1.23;1.00;;;;;;;11.73;48.14;100365.13;10582601;28;20043;-78
2022/04/23 21:21:39;;;;;;;0.00;0.00;;;;;;;11.66;48.69;100365.88;10564120;28;20058;-77
2022/04/23 21:26:40;;;;;;;0.00;0.00;;;;;;;11.64;49.21;100367.59;10549363;28;20047;-77
2022/04/23 21:31:42;;;;;;;0.20;0.20;;;;;;;11.44;49.95;100357.00;10583033;28;20101;-78
2022/04/23 21:36:43;;;;;;;0.00;0.00;;;;;;;11.37;49.79;100366.38;10564198;28;20082;-76
2022/04/23 21:47:05;;;;;;;0.85;0.47;;;;;;;11.51;49.34;100363.09;10581356;28;20044;-79
2022/04/23 21:52:07;;;;;;;6.03;0.47;;;;;;;11.39;50.45;100369.00;10582140;28;20039;-77
2022/04/23 21:57:09;;;;;;;0.10;0.10;;;;;;;11.30;50.66;100364.53;10563654;28;20085;-77
2022/04/23 22:02:11;;;;;;;0.20;0.20;;;;;;;11.27;50.60;100361.94;10586909;27;20451;-76
2022/04/23 22:07:18;;;;;;;0.28;0.22;;;;;;;11.17;51.00;100372.94;10562293;28;20048;-78
2022/04/23 22:12:20;;;;;;;0.00;0.00;;;;;;;11.16;51.28;100366.06;10547615;28;20111;-77
2022/04/23 22:17:21;;;;;;;0.63;0.63;;;;;;;11.10;51.19;100370.28;10578338;28;20047;-79
2022/04/23 22:22:23;;;;;;;1.13;0.28;;;;;;;11.15;51.28;100372.06;10575659;27;20071;-77
2022/04/23 22:27:34;;;;;;;0.50;0.20;;;;;;;11.06;51.45;100365.91;10616163;27;20043;-78
2022/04/23 22:32:40;;;;;;;0.38;0.38;;;;;;;10.93;51.95;100364.00;10602479;28;20055;-77
2022/04/23 22:37:42;;;;;;;0.00;0.00;;;;;;;10.99;51.92;100369.25;10559321;28;20058;-77
2022/04/23 22:42:46;;;;;;;0.40;0.40;;;;;;;10.92;51.88;100368.28;10578148;28;20044;-77
2022/04/23 22:47:47;;;;;;;0.08;0.03;;;;;;;10.87;52.07;100369.06;10560125;28;20568;-76
2022/04/23 22:52:52;;;;;;;0.45;0.45;;;;;;;10.91;52.03;100365.66;10577832;28;20064;-75
2022/04/23 22:57:53;;;;;;;0.63;0.50;;;;;;;10.67;53.28;100367.03;10572037;28;20089;-77
2022/04/23 23:02:59;;;;;;;0.00;0.00;;;;;;;10.83;52.12;100373.28;10566826;28;20051;-77
2022/04/23 23:08:02;;;;;;;0.00;0.00;;;;;;;10.75;52.66;100375.75;10577474;28;20047;-77
2022/04/23 23:13:03;;;;;;;0.22;0.22;;;;;;;10.63;53.20;100365.22;10575777;28;20038;-77
2022/04/23 23:18:05;;;;;;;0.05;0.05;;;;;;;10.55;53.35;100362.53;10588873;27;20043;-77
2022/04/23 23:23:09;;;;;;;0.52;0.32;;;;;;;10.41;53.86;100359.72;10627563;27;20513;-78
2022/04/23 23:28:11;;;;;;;0.35;0.35;;;;;;;10.56;53.17;100360.81;10613338;27;20039;-77
2022/04/23 23:33:13;;;;;;;0.00;0.00;;;;;;;10.45;53.49;100355.47;10589473;27;20103;-77
2022/04/23 23:38:14;;;;;;;0.20;0.20;;;;;;;10.47;53.75;100354.66;10583041;28;20051;-78
2022/04/23 23:43:16;;;;;;;0.00;0.00;;;;;;;10.49;53.47;100354.72;10617289;27;20067;-77
2022/04/23 23:48:17;;;;;;;0.15;0.15;;;;;;;10.33;53.68;100350.94;10584719;28;20062;-77
2022/04/23 23:53:19;;;;;;;0.00;0.00;;;;;;;10.38;53.81;100351.06;10582334;28;20031;-76
2022/04/23 23:58:22;;;;;;;2.35;0.35;;;;;;;10.41;53.53;100356.28;10559386;28;20043;-77
